createdAt,value
2019-05-02T00:02:10.729Z,9.05
2019-05-02T00:07:14.528Z,9.05
2019-05-02T00:12:10.636Z,9
2019-05-02T00:17:09.677Z,8.94
2019-05-02T00:22:12.307Z,8.88
2019-05-02T00:27:10.151Z,8.77
2019-05-02T00:32:09.984Z,8.77
2019-05-02T00:37:10.404Z,8.66
2019-05-02T00:42:12.861Z,8.61
2019-05-02T00:47:11.162Z,8.55
2019-05-02T00:52:10.347Z,8.5
2019-05-02T00:57:14.984Z,8.5
2019-05-02T01:02:10.183Z,8.38
2019-05-02T01:07:10.552Z,8.38
2019-05-02T01:12:10.119Z,8.22
2019-05-02T01:17:10.098Z,8.16
2019-05-02T01:22:15.337Z,8.16
2019-05-02T01:27:08.941Z,8.11
2019-05-02T01:32:10.485Z,8.11
2019-05-02T01:37:12.435Z,8.05
2019-05-02T01:42:10.948Z,7.94
2019-05-02T01:47:10.262Z,7.88
2019-05-02T01:52:11.019Z,7.88
2019-05-02T01:57:10.836Z,7.83
2019-05-02T02:02:10.535Z,7.77
2019-05-02T02:07:10.518Z,7.72
2019-05-02T02:12:11.457Z,7.72
2019-05-02T02:17:15.338Z,7.66
2019-05-02T02:22:10.470Z,7.66
2019-05-02T02:27:10.704Z,7.61
2019-05-02T02:32:10.645Z,7.55
2019-05-02T02:37:12.588Z,7.5
2019-05-02T02:42:10.618Z,7.38
2019-05-02T02:47:11.835Z,7.38
2019-05-02T02:52:10.562Z,7.38
2019-05-02T02:57:20.520Z,7.38
2019-05-02T03:02:09.999Z,7.38
2019-05-02T03:07:10.588Z,7.44
2019-05-02T03:12:10.603Z,7.44
2019-05-02T03:17:09.229Z,7.44
2019-05-02T03:22:09.996Z,7.38
2019-05-02T03:27:10.541Z,7.38
2019-05-02T03:32:16.885Z,7.33
2019-05-02T03:37:13.750Z,7.33
2019-05-02T03:42:10.449Z,7.27
2019-05-02T03:47:10.957Z,7.22
2019-05-02T03:52:10.382Z,7.16
2019-05-02T03:57:11.953Z,7.16
2019-05-02T04:02:14.156Z,7.11
2019-05-02T04:07:10.426Z,7.11
2019-05-02T04:12:18.527Z,7.05
2019-05-02T04:17:10.743Z,7
2019-05-02T04:22:11.904Z,6.94
2019-05-02T04:27:11.037Z,7
2019-05-02T04:32:14.002Z,7.05
2019-05-02T04:37:10.127Z,7.16
2019-05-02T04:42:18.505Z,7.22
2019-05-02T04:47:16.612Z,7.33
2019-05-02T04:52:11.557Z,7.33
2019-05-02T04:57:09.856Z,7.33
2019-05-02T05:02:11.558Z,7.33
2019-05-02T05:07:10.421Z,7.44
2019-05-02T05:17:09.968Z,7.66
2019-05-02T05:22:12.065Z,7.77
2019-05-02T05:27:13.222Z,8.05
2019-05-02T05:32:10.180Z,8.33
2019-05-02T05:42:10.654Z,8.77
2019-05-02T05:47:12.078Z,9.05
2019-05-02T05:52:10.250Z,9.33
2019-05-02T05:57:12.179Z,9.44
2019-05-02T06:02:14.501Z,9.61
2019-05-02T06:07:09.636Z,9.72
2019-05-02T06:12:09.464Z,9.94
2019-05-02T06:17:09.657Z,10.27
2019-05-02T06:22:10.552Z,10.44
2019-05-02T06:27:09.913Z,10.61
2019-05-02T06:32:09.053Z,10.72
2019-05-02T06:37:13.606Z,10.77
2019-05-02T06:42:10.325Z,10.83
2019-05-02T06:47:10.575Z,10.88
2019-05-02T06:52:09.909Z,10.94
2019-05-02T06:57:09.878Z,11.05
2019-05-02T07:02:10.092Z,11.16
2019-05-02T07:07:13.126Z,11.38
2019-05-02T07:12:10.009Z,11.61
2019-05-02T07:17:10.549Z,11.94
2019-05-02T07:22:08.684Z,12.27
2019-05-02T07:27:09.907Z,12.55
2019-05-02T07:32:10.223Z,12.83
2019-05-02T07:37:12.667Z,13.11
2019-05-02T07:42:10.844Z,13.44
2019-05-02T07:47:08.900Z,13.72
2019-05-02T07:52:10.331Z,14.05
2019-05-02T07:57:09.565Z,14.27
2019-05-02T08:02:10.301Z,14.61
2019-05-02T08:07:09.372Z,14.88
2019-05-02T08:12:09.206Z,14.94
2019-05-02T08:27:10.026Z,15.72
2019-05-02T08:32:10.365Z,16.05
2019-05-02T08:42:10.256Z,16.72
2019-05-02T08:47:18.835Z,16.83
2019-05-02T08:57:09.820Z,17.11
2019-05-02T09:02:08.463Z,17.33
2019-05-02T09:07:10.129Z,17.5
2019-05-02T09:12:14.534Z,17.5
2019-05-02T09:17:15.748Z,17.38
2019-05-02T09:22:13.179Z,17.38
2019-05-02T09:27:11.773Z,17.44
2019-05-02T09:32:12.552Z,17.72
2019-05-02T09:37:09.692Z,17.83
2019-05-02T09:42:12.425Z,18
2019-05-02T09:47:12.716Z,18.44
2019-05-02T09:52:09.220Z,18.77
2019-05-02T09:57:09.576Z,19.05
2019-05-02T10:02:09.804Z,19.05
2019-05-02T10:17:12.412Z,18.94
2019-05-02T10:22:08.848Z,18.88
2019-05-02T10:27:09.881Z,18.88
2019-05-02T10:32:15.066Z,18.77
2019-05-02T10:37:12.255Z,18.5
2019-05-02T10:42:10.083Z,18.44
2019-05-02T10:57:08.457Z,18.5
2019-05-02T11:02:12.773Z,18.5
2019-05-02T11:07:11.948Z,18.16
2019-05-02T11:17:13.228Z,17.94
2019-05-02T11:22:12.106Z,17.94
2019-05-02T11:27:10.304Z,18.33
2019-05-02T11:32:12.668Z,18.72
2019-05-02T11:37:11.971Z,19.05
2019-05-02T11:42:09.660Z,19.27
2019-05-02T11:52:11.870Z,18.55
2019-05-02T11:57:11.687Z,18.44
2019-05-02T12:02:09.310Z,18.33
2019-05-02T12:07:09.898Z,18.22
2019-05-02T12:12:09.742Z,18.27
2019-05-02T12:17:08.423Z,18.33
2019-05-02T12:22:12.870Z,18.27
2019-05-02T12:27:09.559Z,18.27
2019-05-02T12:32:08.462Z,18.44
2019-05-02T12:37:12.486Z,18.83
2019-05-02T12:42:12.645Z,19.11
2019-05-02T12:47:11.865Z,19.27
2019-05-02T12:52:07.904Z,19.38
2019-05-02T12:57:12.359Z,19.38
2019-05-02T13:02:09.498Z,19.61
2019-05-02T13:07:09.574Z,20
2019-05-02T13:12:10.334Z,20.11
2019-05-02T13:22:09.838Z,19.83
2019-05-02T13:27:12.485Z,19.83
2019-05-02T13:32:16.902Z,19.83
2019-05-02T13:37:09.566Z,19.83
2019-05-02T13:42:09.338Z,20.5
2019-05-02T13:47:12.235Z,20.72
2019-05-02T13:52:11.775Z,20.38
2019-05-02T13:57:08.503Z,20.05
2019-05-02T14:02:12.261Z,19.55
2019-05-02T14:07:13.163Z,19.05
2019-05-02T14:12:11.761Z,18.72
2019-05-02T14:17:11.711Z,18.44
2019-05-02T14:27:12.968Z,18.83
2019-05-02T14:32:21.478Z,18.66
2019-05-02T14:37:11.804Z,18.5
2019-05-02T14:47:17.680Z,18
2019-05-02T14:57:11.891Z,17.72
2019-05-02T15:02:08.843Z,17.72
2019-05-02T15:07:10.372Z,17.72
2019-05-02T15:12:15.950Z,17.55
2019-05-02T15:17:12.119Z,17.33
2019-05-02T15:22:12.324Z,17.11
2019-05-02T15:27:13.269Z,17
2019-05-02T15:32:12.655Z,16.72
2019-05-02T15:37:09.177Z,16.55
2019-05-02T15:42:08.689Z,16.38
2019-05-02T15:47:10.308Z,16.16
2019-05-02T15:52:09.590Z,15.94
2019-05-02T15:57:09.966Z,15.66
2019-05-02T16:02:10.058Z,15.33
2019-05-02T16:07:12.235Z,15.05
2019-05-02T16:12:12.277Z,14.66
2019-05-02T16:17:12.508Z,14.22
2019-05-02T16:22:11.485Z,13.72
2019-05-02T16:27:11.735Z,13.11
2019-05-02T16:32:09.707Z,12.77
2019-05-02T16:37:13.432Z,12.44
2019-05-02T16:42:12.259Z,12.27
2019-05-02T16:47:10.898Z,12
2019-05-02T16:52:09.936Z,11.88
2019-05-02T16:57:09.624Z,11.66
2019-05-02T17:02:09.776Z,11.44
2019-05-02T17:07:11.576Z,11.33
2019-05-02T17:12:11.907Z,11.22
2019-05-02T17:17:09.081Z,11.11
2019-05-02T17:22:11.998Z,11.11
2019-05-02T17:27:13.046Z,11.22
2019-05-02T17:37:11.531Z,11.38
2019-05-02T17:42:10.166Z,11.38
2019-05-02T17:52:18.618Z,11.33
2019-05-02T17:57:11.734Z,11.27
2019-05-02T18:02:12.331Z,11.27
2019-05-02T18:07:11.537Z,11.22
2019-05-02T18:12:12.567Z,11.16
2019-05-02T18:17:09.881Z,11.11
2019-05-02T18:22:21.063Z,11.11
2019-05-02T18:27:12.706Z,11
2019-05-02T18:32:10.115Z,10.94
2019-05-02T18:37:09.961Z,10.88
2019-05-02T18:42:11.806Z,10.83
2019-05-02T18:47:12.596Z,10.83
2019-05-02T18:52:08.427Z,10.77
2019-05-02T18:57:11.812Z,10.77
2019-05-02T19:02:09.995Z,10.77
2019-05-02T19:07:12.963Z,10.72
2019-05-02T19:12:13.769Z,10.66
2019-05-02T19:17:09.475Z,10.55
2019-05-02T19:22:13.301Z,10.5
2019-05-02T19:27:10.157Z,10.44
2019-05-02T19:37:12.183Z,10.44
2019-05-02T19:47:15.658Z,10.44
2019-05-02T19:52:12.710Z,10.44
2019-05-02T19:57:11.830Z,10.44
2019-05-02T20:02:09.337Z,10.38
2019-05-02T20:07:12.242Z,10.38
2019-05-02T20:12:15.000Z,10.33
2019-05-02T20:17:10.331Z,10.33
2019-05-02T20:22:11.818Z,10.33
2019-05-02T20:32:09.558Z,10.33
2019-05-02T20:37:09.843Z,10.38
2019-05-02T20:42:12.107Z,10.38
2019-05-02T20:47:09.599Z,10.38
2019-05-02T20:52:11.846Z,10.38
2019-05-02T20:57:12.027Z,10.33
2019-05-02T21:02:12.264Z,10.27
2019-05-02T21:07:11.090Z,10.22
2019-05-02T21:12:12.457Z,10.22
2019-05-02T21:17:09.458Z,10.16
2019-05-02T21:22:09.326Z,10.11
2019-05-02T21:27:09.910Z,10.05
2019-05-02T21:32:11.938Z,10
2019-05-02T21:37:11.122Z,10
2019-05-02T21:42:09.783Z,9.94
2019-05-02T21:47:10.046Z,9.94
2019-05-02T21:52:11.896Z,9.94
2019-05-02T21:57:12.163Z,9.88
2019-05-02T22:02:11.878Z,9.88
2019-05-02T22:07:09.596Z,9.88
2019-05-02T22:12:11.830Z,9.83
2019-05-02T22:17:12.712Z,9.88
2019-05-02T22:22:08.691Z,9.94
2019-05-02T22:27:12.252Z,9.94
2019-05-02T22:32:12.307Z,9.94
2019-05-02T22:37:09.964Z,9.94
2019-05-02T22:42:09.588Z,9.88
2019-05-02T22:47:11.757Z,9.83
2019-05-02T22:52:12.138Z,9.77
2019-05-02T22:57:11.575Z,9.72
2019-05-02T23:02:12.597Z,9.66
2019-05-02T23:07:12.529Z,9.61
2019-05-02T23:12:13.056Z,9.55
2019-05-02T23:17:10.038Z,9.5
2019-05-02T23:22:12.503Z,9.44
2019-05-02T23:27:11.710Z,9.33
2019-05-02T23:32:10.754Z,9.27
2019-05-02T23:37:09.196Z,9.27
2019-05-02T23:42:09.829Z,9.27
2019-05-02T23:47:11.745Z,9.33
2019-05-02T23:52:11.776Z,9.33
2019-05-02T23:57:09.197Z,9.33
